Latest Weather Observations for Julia Creek

IDQ60801

Issued at 6:32 am EST Monday 27 April 2015 (issued every 30 minutes, with the page automatically refreshed every 10 minutes)

About weather observations | Map of weather stations | Latest weather observations for QLD | Other Formats
Station Details ID: 029058 Name: JULIA CREEK AIRPORT Lat: -20.67 Lon: 141.72 Height: 122.5 m
Data from the previous 72 hours. | See also: Recent months at Julia Creek
Date/Time
EST
Temp
°C
App
Temp
°C
Dew
Point
Rel
Hum
%
Delta-T
°C
Wind Press
QNH
hPa
Press
MSL
hPa
Rain
since 9 am
mm
Dir
 
Spd
km/h
Gust
km/h
Spd
kts
Gust
kts
27/06:30am 10.7 5.5 -2.7 39 5.1 SSE 15 19 8 10 1019.2 1018.6 0.0
27/06:00am 10.3 5.0 -3.7 37 5.2 SSE 15 17 8 9 1018.9 1018.2 0.0
27/05:30am 10.5 4.8 -3.9 36 5.3 SSE 17 19 9 10 1018.8 1018.1 0.0
27/05:00am 10.4 5.3 -4.8 34 5.5 SSE 13 15 7 8 1018.6 1017.9 0.0
27/04:30am 11.7 5.5 -4.4 32 6.0 SSE 19 22 10 12 1018.2 1017.5 0.0
27/04:00am 11.9 5.7 -4.7 31 6.1 SSE 19 24 10 13 1017.9 1017.2 0.0
27/03:30am 12.0 6.2 -5.0 30 6.3 SSE 17 20 9 11 1018.0 1017.3 0.0
27/03:00am 11.9 6.4 -5.5 29 6.3 SSE 15 19 8 10 1018.3 1017.6 0.0
27/02:30am 13.1 6.9 -5.0 28 6.8 SSE 19 24 10 13 1018.1 1017.4 0.0
27/02:00am 13.9 7.5 -4.8 27 7.1 SSE 20 24 11 13 1018.1 1017.4 0.0
27/01:30am 13.9 7.5 -4.8 27 7.1 SSE 20 24 11 13 1018.2 1017.5 0.0
27/01:00am 12.7 7.2 -5.3 28 6.6 SSE 15 17 8 9 1018.5 1017.8 0.0
27/12:30am 14.3 8.5 -4.9 26 7.3 SSE 17 19 9 10 1018.7 1018.0 0.0
27/12:00am 15.4 9.6 -4.5 25 7.7 SSE 17 20 9 11 1018.7 1018.0 0.0
 
Date/Time
EST
Temp
°C
App
Temp
°C
Dew
Point
Rel
Hum
%
Delta-T
°C
Wind Press
QNH
hPa
Press
MSL
hPa
Rain
since 9 am
mm
Dir
 
Spd
km/h
Gust
km/h
Spd
kts
Gust
kts
26/11:30pm 15.3 9.5 -4.6 25 7.7 ESE 17 22 9 12 1018.8 1018.1 0.0
26/11:00pm 15.0 9.2 -4.8 25 7.6 S 17 17 9 9 1018.6 1017.9 0.0
26/10:30pm 15.1 9.6 -5.3 24 7.7 SSE 15 15 8 8 1018.7 1018.0 0.0
26/10:00pm 16.2 10.8 -4.4 24 8.0 SSE 15 17 8 9 1018.9 1018.2 0.0
26/09:30pm 16.9 11.5 -4.3 23 8.4 SSE 15 17 8 9 1018.7 1018.0 0.0
26/09:00pm 16.7 11.7 -4.5 23 8.3 SSE 13 17 7 9 1018.5 1017.8 0.0
26/08:30pm 17.9 12.9 -4.7 21 8.9 S 13 15 7 8 1018.1 1017.4 0.0
26/08:00pm 18.4 13.4 -4.3 21 9.1 SSE 13 15 7 8 1017.7 1017.0 0.0
26/07:30pm 21.4 16.2 -3.1 19 10.3 SE 15 17 8 9 1017.2 1016.5 0.0
26/07:00pm 22.8 17.2 -2.7 18 11.0 SSE 17 20 9 11 1016.7 1016.0 0.0
26/06:30pm 24.4 18.5 -2.2 17 11.7 SSE 19 20 10 11 1016.4 1015.7 0.0
26/06:00pm 26.0 19.5 -2.6 15 12.7 SSE 22 32 12 17 1016.2 1015.5 0.0
26/05:30pm 27.1 20.0 -0.9 16 13.0 SSE 26 35 14 19 1015.7 1015.0 0.0
26/05:00pm 27.6 20.6 -0.5 16 13.1 SSE 26 37 14 20 1015.3 1014.6 0.0
26/04:30pm 28.0 20.7 -0.1 16 13.3 SSE 28 41 15 22 1015.2 1014.5 0.0
26/04:00pm 28.0 20.6 -1.0 15 13.5 S 28 39 15 21 1015.2 1014.5 0.0
26/03:30pm 28.6 22.0 -0.5 15 13.7 SSE 24 41 13 22 1015.2 1014.5 0.0
26/03:00pm 28.2 20.8 -0.9 15 13.6 SSE 28 37 15 20 1015.4 1014.7 0.0
26/02:30pm 28.1 20.7 -0.9 15 13.5 SE 28 43 15 23 1015.8 1015.1 0.0
26/02:00pm 27.2 19.9 0.1 17 12.8 SSE 28 43 15 23 1016.2 1015.5 0.0
26/01:30pm 27.1 19.8 0.0 17 12.7 SE 28 44 15 24 1016.6 1015.9 0.0
26/01:00pm 27.8 20.8 2.1 19 12.6 SSE 28 39 15 21 1017.0 1016.3 0.0
26/12:30pm 25.9 18.8 1.2 20 11.8 SSE 28 39 15 21 1017.7 1017.0 0.0
26/12:00pm 25.5 18.5 2.2 22 11.2 SE 28 39 15 21 1018.4 1017.7 0.0
26/11:30am 24.3 17.0 2.5 24 10.5 SSE 30 43 16 23 1018.9 1018.2 0.0
26/11:00am 23.7 16.5 3.1 26 10.0 SE 30 43 16 23 1019.5 1018.9 0.0
26/10:30am 22.7 15.0 3.3 28 9.4 SE 33 44 18 24 1020.1 1019.5 0.0
26/10:00am 21.8 13.7 3.5 30 8.8 SE 35 44 19 24 1020.4 1019.8 0.0
26/09:30am 20.5 12.9 2.8 31 8.3 SSE 32 41 17 22 1020.3 1019.7 0.0
26/09:00am 19.0 12.5 2.4 33 7.7 SSE 26 32 14 17 1020.1 1019.5 0.0
26/08:30am 16.4 10.8 0.9 35 6.8 SSE 20 26 11 14 1019.6 1019.0 0.0
26/08:00am 14.4 8.9 0.3 38 6.0 S 19 20 10 11 1018.9 1018.2 0.0
26/07:30am 11.6 6.2 -1.2 41 5.1 S 17 20 9 11 1018.5 1017.8 0.0
26/07:00am 8.4 3.2 -3.1 44 4.2 S 15 17 8 9 1018.2 1017.5 0.0
26/06:30am 8.5 3.6 -3.0 44 4.3 S 13 13 7 7 1017.9 1017.2 0.0
26/06:00am 8.8 3.9 -3.1 43 4.4 S 13 15 7 8 1017.9 1017.2 0.0
26/05:30am 9.4 5.3 -2.8 42 4.6 S 9 13 5 7 1017.8 1017.1 0.0
26/05:00am 10.2 5.8 -2.8 40 4.9 S 11 11 6 6 1017.5 1016.8 0.0
26/04:30am 12.2 7.9 -2.0 37 5.6 S 11 13 6 7 1017.2 1016.5 0.0
26/04:00am 13.7 8.6 -1.9 34 6.3 S 15 19 8 10 1017.0 1016.3 0.0
26/03:30am 14.7 8.9 -1.4 33 6.6 S 19 24 10 13 1016.9 1016.2 0.0
26/03:00am 15.3 9.5 -1.3 32 6.9 S 19 28 10 15 1017.0 1016.3 0.0
26/02:30am 15.6 8.5 -1.0 32 6.9 SSW 26 32 14 17 1016.7 1016.0 0.0
26/02:00am 15.7 9.7 -1.4 31 7.1 S 20 26 11 14 1017.1 1016.4 0.0
26/01:30am 16.4 10.4 -1.2 30 7.4 S 20 24 11 13 1017.1 1016.4 0.0
26/01:00am 17.2 11.5 -1.0 29 7.7 S 19 24 10 13 1017.4 1016.7 0.0
26/12:30am 18.2 12.0 -0.1 29 8.0 S 22 30 12 16 1017.4 1016.7 0.0
26/12:00am 19.2 12.3 0.3 28 8.4 S 26 32 14 17 1017.6 1016.9 0.0
 
Date/Time
EST
Temp
°C
App
Temp
°C
Dew
Point
Rel
Hum
%
Delta-T
°C
Wind Press
QNH
hPa
Press
MSL
hPa
Rain
since 9 am
mm
Dir
 
Spd
km/h
Gust
km/h
Spd
kts
Gust
kts
25/11:30pm 20.1 12.5 0.5 27 8.8 S 30 37 16 20 1017.3 1016.6 0.0
25/11:00pm 20.4 13.2 0.8 27 8.9 S 28 35 15 19 1017.1 1016.4 0.0
25/10:30pm 20.7 13.9 1.1 27 9.0 S 26 33 14 18 1017.2 1016.5 0.0
25/10:00pm 20.9 14.1 0.7 26 9.2 S 26 32 14 17 1017.2 1016.5 0.0
25/09:30pm 21.4 14.6 0.6 25 9.5 S 26 33 14 18 1017.1 1016.4 0.0
25/09:00pm 21.7 15.6 0.3 24 9.7 S 22 28 12 15 1016.8 1016.1 0.0
25/08:30pm 22.3 16.3 0.8 24 9.9 S 22 28 12 15 1016.5 1015.8 0.0
25/08:00pm 22.5 17.0 0.9 24 10.0 S 19 24 10 13 1016.2 1015.5 0.0
25/07:30pm 23.5 18.1 1.2 23 10.4 S 19 24 10 13 1015.7 1015.0 0.0
25/07:00pm 24.7 19.4 1.6 22 11.0 S 19 24 10 13 1015.1 1014.4 0.0
25/06:30pm 25.9 19.7 1.9 21 11.6 S 24 32 13 17 1014.7 1014.0 0.0
25/06:00pm 27.1 20.4 1.5 19 12.4 S 26 33 14 18 1014.3 1013.6 0.0
25/05:30pm 28.2 20.8 1.7 18 12.9 S 30 41 16 22 1013.8 1013.2 0.0
25/05:00pm 29.0 22.3 1.5 17 13.5 S 26 33 14 18 1013.4 1012.8 0.0
25/04:30pm 29.4 22.6 1.0 16 13.8 SSE 26 35 14 19 1013.1 1012.5 0.0
25/04:00pm 29.8 23.1 1.3 16 14.0 SSE 26 39 14 21 1012.9 1012.3 0.0
25/03:30pm 29.9 22.8 1.4 16 14.0 S 28 41 15 22 1012.7 1012.1 0.0
25/03:00pm 30.7 22.8 1.1 15 14.6 S 32 44 17 24 1012.6 1012.0 0.0
25/02:30pm 31.1 24.0 1.4 15 14.7 S 28 44 15 24 1012.6 1012.0 0.0
25/02:00pm 30.3 23.1 0.8 15 14.4 S 28 43 15 23 1012.9 1012.3 0.0
25/01:30pm 29.7 22.6 1.2 16 13.9 SSE 28 39 15 21 1013.3 1012.7 0.0
25/01:05pm 30.0 22.8 0.6 15 14.3 SSE 28 48 15 26 1013.5 1012.9 0.0
25/01:00pm 29.7 22.4 0.3 15 14.2 SSE 28 41 15 22 1013.7 1013.1 0.0
25/12:30pm 29.5 21.8 0.2 15 14.1 SSE 30 41 16 22 1014.4 1013.7 0.0
25/12:00pm 29.0 20.9 -0.2 15 13.9 S 32 43 17 23 1014.9 1014.2 0.0
25/11:30am 28.6 21.5 1.2 17 13.3 SSE 28 41 15 22 1015.4 1014.7 0.0
25/11:00am 28.1 20.5 0.8 17 13.1 SSE 30 41 16 22 1015.8 1015.1 0.0
25/10:30am 27.2 19.3 0.8 18 12.6 SSE 32 41 17 22 1016.0 1015.3 0.0
25/10:00am 26.3 18.5 1.6 20 11.9 SSE 32 41 17 22 1016.0 1015.3 0.0
25/09:30am 24.7 16.8 0.9 21 11.2 SSE 32 41 17 22 1016.0 1015.3 0.0
25/09:00am 22.9 14.9 0.7 23 10.2 SSE 32 39 17 21 1015.7 1015.0 0.0
25/08:30am 21.0 14.8 -0.3 24 9.5 SSE 22 32 12 17 1015.3 1014.6 0.0
25/08:00am 18.8 13.1 -0.6 27 8.4 S 19 24 10 13 1015.0 1014.3 0.0
25/07:30am 16.1 11.4 -1.9 29 7.4 S 13 17 7 9 1014.6 1013.9 0.0
25/07:00am 14.0 9.6 -2.4 32 6.5 S 11 13 6 7 1014.2 1013.5 0.0
25/06:30am 14.1 9.3 -2.8 31 6.7 S 13 13 7 7 1013.7 1013.1 0.0
25/06:00am 15.0 10.2 -2.4 30 7.0 S 13 15 7 8 1013.4 1012.8 0.0
25/05:30am 15.0 9.8 -2.4 30 7.0 S 15 17 8 9 1013.1 1012.5 0.0
25/05:00am 14.8 10.3 -3.0 29 7.1 S 11 11 6 6 1013.1 1012.5 0.0
25/04:30am 16.0 11.1 -3.0 27 7.6 S 13 15 7 8 1012.9 1012.3 0.0
25/04:00am 16.9 11.7 -2.7 26 8.0 SSW 15 19 8 10 1012.7 1012.1 0.0
25/03:30am 18.0 12.5 -2.3 25 8.5 S 17 20 9 11 1012.6 1012.0 0.0
25/03:00am 18.2 12.6 -2.7 24 8.7 S 17 20 9 11 1012.6 1012.0 0.0
25/02:30am 18.4 12.8 -3.1 23 8.8 S 17 19 9 10 1012.6 1012.0 0.0
25/02:00am 18.6 13.0 -2.9 23 8.9 S 17 20 9 11 1012.5 1011.9 0.0
25/01:30am 17.7 12.4 -3.7 23 8.6 SSW 15 17 8 9 1012.5 1011.9 0.0
25/01:00am 17.1 12.1 -4.2 23 8.5 SSW 13 15 7 8 1012.6 1012.0 0.0
25/12:30am 18.0 13.1 -3.4 23 8.7 S 13 15 7 8 1012.7 1012.1 0.0
25/12:00am 18.6 13.3 -3.5 22 9.0 S 15 15 8 8 1012.7 1012.1 0.0
 
Date/Time
EST
Temp
°C
App
Temp
°C
Dew
Point
Rel
Hum
%
Delta-T
°C
Wind Press
QNH
hPa
Press
MSL
hPa
Rain
since 9 am
mm
Dir
 
Spd
km/h
Gust
km/h
Spd
kts
Gust
kts
24/11:30pm 19.3 14.0 -3.5 21 9.4 S 15 17 8 9 1012.7 1012.1 0.0
24/11:00pm 19.2 14.3 -3.6 21 9.4 SSW 13 15 7 8 1012.6 1012.0 0.0
24/10:30pm 19.8 14.5 -3.8 20 9.7 SSW 15 17 8 9 1012.6 1012.0 0.0
24/10:00pm 20.6 15.3 -3.8 19 10.1 SSW 15 19 8 10 1012.7 1012.1 0.0
24/09:30pm 21.3 15.7 -3.2 19 10.3 SSW 17 19 9 10 1012.6 1012.0 0.0
24/09:00pm 20.9 15.9 -4.3 18 10.4 S 13 13 7 7 1012.4 1011.8 0.0
24/08:30pm 21.5 16.2 -3.8 18 10.6 S 15 15 8 8 1012.2 1011.6 0.0
24/08:00pm 22.0 17.0 -4.1 17 10.9 S 13 15 7 8 1011.9 1011.3 0.0
24/07:30pm 23.0 18.1 -3.3 17 11.2 S 13 15 7 8 1011.4 1010.7 0.0
24/07:00pm 24.6 20.1 -2.9 16 12.0 S 11 11 6 6 1011.0 1010.3 0.0
24/06:30pm 26.9 22.6 -1.9 15 13.1 SSE 11 13 6 7 1010.6 1009.9 0.0
24/06:00pm 29.5 25.2 -1.8 13 14.5 SSE 11 15 6 8 1010.3 1009.6 0.0
24/05:30pm 30.4 25.4 -1.1 13 14.9 S 15 22 8 12 1010.1 1009.4 0.0
24/05:00pm 30.8 25.9 -0.8 13 15.1 S 15 20 8 11 1010.0 1009.3 0.0
24/04:30pm 30.9 25.4 -1.8 12 15.3 SSE 17 26 9 14 1009.8 1009.1 0.0
24/04:00pm 31.1 26.6 -0.5 13 15.2 SSE 13 22 7 12 1009.8 1009.1 0.0
24/03:30pm 31.4 26.9 -0.3 13 15.3 SSE 13 24 7 13 1009.9 1009.2 0.0
24/03:00pm 31.5 27.4 -0.2 13 15.3 S 11 20 6 11 1010.0 1009.3 0.0
24/02:30pm 30.2 26.1 -0.2 14 14.6 SE 11 20 6 11 1010.2 1009.5 0.0
24/02:00pm 30.3 26.0 0.8 15 14.4 SE 13 20 7 11 1010.5 1009.8 0.0
24/01:30pm 29.6 24.0 1.1 16 13.9 SSE 20 30 11 16 1011.0 1010.3 0.0
24/01:00pm 29.9 25.4 2.2 17 13.8 S 15 24 8 13 1011.4 1010.7 0.0
24/12:30pm 29.4 25.7 2.6 18 13.4 SSE 11 22 6 12 1012.2 1011.6 0.0
24/12:00pm 28.7 25.1 2.8 19 12.9 S 11 19 6 10 1012.7 1012.1 0.0
24/11:30am 27.6 23.6 2.6 20 12.4 SE 13 22 7 12 1013.5 1012.9 0.0
24/11:00am 27.0 23.4 2.8 21 12.0 SE 11 24 6 13 1014.0 1013.3 0.0
24/10:30am 26.3 22.3 2.9 22 11.5 SE 13 19 7 10 1014.4 1013.7 0.0
24/10:00am 24.9 21.2 2.4 23 10.9 SE 11 17 6 9 1014.4 1013.7 0.0
24/09:30am 23.0 18.8 1.4 24 10.1 ESE 13 17 7 9 1014.5 1013.8 0.0
24/09:00am 21.0 16.6 0.2 25 9.4 ESE 13 19 7 10 1014.1 1013.4 0.0
24/08:30am 19.7 15.3 0.2 27 8.7 SE 13 17 7 9 1014.1 1013.4 0.0
24/08:00am 17.1 12.9 -1.1 29 7.7 SE 11 15 6 8 1013.6 1013.0 0.0
24/07:30am 12.8 8.6 -3.5 32 6.3 SE 9 11 5 6 1013.1 1012.5 0.0
24/07:00am 10.1 6.2 -5.0 34 5.4 SSE 7 11 4 6 1012.8 1012.2 0.0

Other Formats:

Comma delimited format used in spreadsheet applications
http://www.bom.gov.au/fwo/IDQ60801/IDQ60801.94337.axf

JavaScript Object Notation format (JSON) in row-major order
http://www.bom.gov.au/fwo/IDQ60801/IDQ60801.94337.json